createdAt,value
2023-03-11T00:04:41.249Z,12.77
2023-03-11T00:09:43.376Z,11.20
2023-03-11T00:14:45.610Z,17.08
2023-03-11T00:19:47.589Z,9.88
2023-03-11T00:24:49.618Z,9.63
2023-03-11T00:29:51.678Z,11.50
2023-03-11T00:34:53.858Z,15.18
2023-03-11T00:39:56.233Z,9.52
2023-03-11T00:44:58.287Z,15.30
2023-03-11T00:50:00.691Z,10.95
2023-03-11T00:55:02.965Z,8.52
2023-03-11T01:00:11.200Z,8.25
2023-03-11T01:05:13.690Z,15.25
2023-03-11T01:10:16.499Z,8.85
2023-03-11T01:15:36.111Z,9.65
2023-03-11T01:20:38.732Z,12.65
2023-03-11T01:25:40.805Z,12.90
2023-03-11T01:30:43.116Z,13.75
2023-03-11T01:35:46.123Z,9.52
2023-03-11T01:40:50.670Z,7.43
2023-03-11T01:45:53.911Z,12.75
2023-03-11T01:51:00.638Z,13.80
2023-03-11T01:56:06.904Z,9.80
2023-03-11T02:01:09.242Z,10.90
2023-03-11T02:06:15.932Z,10.00
2023-03-11T02:11:22.582Z,5.70
2023-03-11T02:16:25.146Z,12.38
2023-03-11T02:21:32.668Z,10.82
2023-03-11T02:27:06.828Z,8.57
2023-03-11T02:32:10.791Z,11.45
2023-03-11T02:37:18.612Z,6.82
2023-03-11T02:42:31.456Z,14.10
2023-03-11T02:47:36.069Z,13.63
2023-03-11T02:52:38.593Z,15.50
2023-03-11T02:57:40.856Z,11.18
2023-03-11T03:02:44.635Z,9.73
2023-03-11T03:07:50.556Z,14.57
2023-03-11T03:12:53.630Z,15.00
2023-03-11T03:17:56.412Z,16.23
2023-03-11T03:22:59.263Z,12.00
2023-03-11T03:28:04.871Z,8.80
2023-03-11T03:33:09.849Z,12.05
2023-03-11T03:38:12.698Z,10.68
2023-03-11T03:43:15.693Z,12.82
2023-03-11T03:48:20.205Z,10.40
2023-03-11T03:53:23.070Z,11.32
2023-03-11T03:58:25.314Z,12.68
2023-03-11T04:03:27.736Z,10.82
2023-03-11T04:08:35.016Z,10.23
2023-03-11T04:13:38.080Z,8.82
2023-03-11T04:18:41.588Z,10.55
2023-03-11T04:23:44.242Z,10.88
2023-03-11T04:28:49.097Z,6.32
2023-03-11T04:33:52.228Z,8.07
2023-03-11T04:38:56.991Z,22.20
2023-03-11T04:44:00.659Z,15.25
2023-03-11T04:49:03.579Z,9.18
2023-03-11T04:54:05.870Z,12.40
2023-03-11T04:59:08.791Z,8.13
2023-03-11T05:04:13.122Z,12.75
2023-03-11T05:09:16.294Z,12.82
2023-03-11T05:14:18.469Z,12.35
2023-03-11T05:19:34.703Z,12.38
2023-03-11T05:24:42.944Z,9.57
2023-03-11T05:29:45.241Z,12.45
2023-03-11T05:34:48.352Z,7.88
2023-03-11T05:39:52.681Z,17.35
2023-03-11T05:44:55.741Z,12.23
2023-03-11T05:49:59.610Z,4.65
2023-03-11T05:55:02.003Z,7.97
2023-03-11T06:00:12.282Z,9.70
2023-03-11T06:05:21.683Z,14.65
2023-03-11T06:10:25.860Z,9.38
2023-03-11T06:15:28.286Z,11.85
2023-03-11T06:20:31.424Z,8.73
2023-03-11T06:25:33.960Z,7.03
2023-03-11T06:30:36.560Z,8.07
2023-03-11T06:35:59.072Z,14.43
2023-03-11T06:41:03.859Z,10.40
2023-03-11T06:46:17.337Z,13.90
2023-03-11T06:51:21.335Z,10.77
2023-03-11T06:56:24.234Z,13.10
2023-03-11T07:01:37.710Z,11.00
2023-03-11T07:06:43.218Z,11.02
2023-03-11T07:11:52.425Z,11.13
2023-03-11T07:17:01.725Z,8.05
2023-03-11T07:22:15.556Z,15.90
2023-03-11T07:27:18.482Z,20.45
2023-03-11T07:32:20.540Z,9.82
2023-03-11T07:37:22.844Z,17.73
2023-03-11T07:42:25.074Z,11.63
2023-03-11T07:47:29.857Z,14.68
2023-03-11T07:52:32.573Z,14.48
2023-03-11T07:57:34.761Z,16.88
2023-03-11T08:02:37.168Z,10.00
2023-03-11T08:07:39.366Z,15.18
2023-03-11T08:12:41.504Z,12.05
2023-03-11T08:17:43.740Z,12.77
2023-03-11T08:22:57.358Z,13.20
2023-03-11T08:28:00.637Z,13.68
2023-03-11T08:33:03.045Z,11.70
2023-03-11T08:38:05.735Z,13.63
2023-03-11T08:43:07.904Z,9.57
2023-03-11T08:48:11.774Z,12.35
2023-03-11T08:53:16.072Z,12.82
2023-03-11T08:58:21.243Z,9.98
2023-03-11T09:03:26.192Z,11.68
2023-03-11T09:08:28.758Z,7.45
2023-03-11T09:13:31.040Z,6.05
2023-03-11T09:18:33.236Z,6.47
2023-03-11T09:23:35.459Z,13.40
2023-03-11T09:28:37.528Z,6.05
2023-03-11T09:33:41.829Z,6.65
2023-03-11T09:38:44.851Z,6.97
2023-03-11T09:43:56.313Z,10.70
2023-03-11T09:49:22.995Z,8.38
2023-03-11T09:54:28.919Z,11.10
2023-03-11T09:59:32.539Z,5.50
2023-03-11T10:04:55.990Z,12.10
2023-03-11T10:09:58.978Z,4.93
2023-03-11T10:15:27.762Z,13.43
2023-03-11T10:20:55.125Z,7.47
2023-03-11T10:26:11.106Z,5.50
2023-03-11T10:31:20.293Z,7.90
2023-03-11T10:36:27.241Z,6.57
2023-03-11T10:41:29.689Z,9.93
2023-03-11T10:46:31.860Z,9.25
2023-03-11T10:51:35.364Z,5.05
2023-03-11T10:56:39.946Z,8.30
2023-03-11T11:01:54.256Z,5.35
2023-03-11T11:06:56.414Z,5.88
2023-03-11T11:12:11.825Z,22.98
2023-03-11T11:17:24.956Z,7.03
2023-03-11T11:22:28.591Z,9.25
2023-03-11T11:27:32.775Z,6.00
2023-03-11T11:32:36.113Z,8.15
2023-03-11T11:37:50.904Z,8.52
2023-03-11T11:42:56.928Z,7.15
2023-03-11T11:48:04.574Z,6.80
2023-03-11T11:53:28.973Z,7.50
2023-03-11T11:58:31.695Z,5.03
2023-03-11T12:03:50.277Z,3.05
2023-03-11T12:09:06.253Z,3.75
2023-03-11T12:14:25.437Z,2.75
2023-03-11T12:19:36.967Z,6.88
2023-03-11T12:25:40.706Z,8.20
2023-03-11T12:30:46.075Z,4.18
2023-03-11T12:35:56.891Z,3.70
2023-03-11T12:41:38.841Z,3.97
2023-03-11T12:46:59.182Z,5.47
2023-03-11T12:52:16.562Z,5.03
2023-03-11T12:57:18.616Z,9.02
2023-03-11T13:02:42.258Z,6.03
2023-03-11T13:08:02.662Z,4.78
2023-03-11T13:13:35.076Z,3.13
2023-03-11T13:18:37.318Z,5.00
2023-03-11T13:23:42.618Z,12.50
2023-03-11T13:29:13.914Z,6.30
2023-03-11T13:34:21.939Z,2.92
2023-03-11T13:39:33.124Z,6.40
2023-03-11T13:44:37.476Z,3.47
2023-03-11T13:49:51.665Z,21.70
2023-03-11T13:55:02.676Z,8.30
2023-03-11T14:00:16.699Z,4.93
2023-03-11T14:05:23.366Z,8.23
2023-03-11T14:10:28.972Z,7.47
2023-03-11T14:15:40.990Z,16.52
2023-03-11T14:20:47.759Z,6.53
2023-03-11T14:25:58.309Z,8.80
2023-03-11T14:31:02.404Z,15.15
2023-03-11T14:36:07.006Z,12.23
2023-03-11T14:41:14.100Z,3.72
2023-03-11T14:46:27.985Z,8.10
2023-03-11T14:51:34.317Z,6.22
2023-03-11T14:56:40.779Z,5.10
2023-03-11T15:01:46.509Z,18.40
2023-03-11T15:06:48.596Z,10.65
2023-03-11T15:12:01.967Z,5.63
2023-03-11T15:17:33.097Z,3.03
2023-03-11T15:22:41.166Z,5.03
2023-03-11T15:27:43.280Z,6.15
2023-03-11T15:32:46.023Z,4.85
2023-03-11T15:37:50.246Z,5.03
2023-03-11T15:43:23.783Z,5.55
2023-03-11T15:48:27.795Z,4.55
2023-03-11T15:53:30.614Z,4.00
2023-03-11T15:58:32.609Z,5.47
2023-03-11T16:03:34.738Z,11.23
2023-03-11T16:08:36.832Z,4.38
2023-03-11T16:13:39.256Z,5.40
2023-03-11T16:18:41.425Z,5.55
2023-03-11T16:23:51.532Z,5.30
2023-03-11T16:28:54.370Z,5.65
2023-03-11T16:33:56.510Z,6.43
2023-03-11T16:38:58.830Z,5.70
2023-03-11T16:44:01.033Z,4.82
2023-03-11T16:49:03.276Z,8.50
2023-03-11T16:54:05.543Z,11.38
2023-03-11T16:59:07.926Z,8.35
2023-03-11T17:04:10.070Z,14.23
2023-03-11T17:09:12.124Z,13.80
2023-03-11T17:14:16.820Z,21.05
2023-03-11T17:19:19.155Z,15.13
2023-03-11T17:24:21.333Z,8.98
2023-03-11T17:29:23.408Z,14.02
2023-03-11T17:34:25.573Z,18.42
2023-03-11T17:39:27.735Z,22.67
2023-03-11T17:44:37.853Z,33.10
2023-03-11T17:49:48.442Z,22.70
2023-03-11T17:54:51.758Z,27.58
2023-03-11T17:59:54.003Z,22.33
2023-03-11T18:04:56.324Z,19.05
2023-03-11T18:09:58.602Z,30.38
2023-03-11T18:15:05.952Z,25.30
2023-03-11T18:20:08.869Z,34.78
2023-03-11T18:25:11.095Z,24.38
2023-03-11T18:30:14.423Z,33.00
2023-03-11T18:35:17.601Z,27.85
2023-03-11T18:40:20.110Z,49.38
2023-03-11T18:45:22.121Z,46.80
2023-03-11T18:50:24.356Z,33.72
2023-03-11T18:55:26.442Z,37.65
2023-03-11T19:00:28.752Z,45.17
2023-03-11T19:05:30.832Z,43.72
2023-03-11T19:10:32.998Z,46.08
2023-03-11T19:15:41.696Z,59.50
2023-03-11T19:20:43.740Z,74.22
2023-03-11T19:26:00.722Z,61.00
2023-03-11T19:31:05.386Z,51.17
2023-03-11T19:36:08.106Z,43.75
2023-03-11T19:41:18.522Z,51.45
2023-03-11T19:46:21.875Z,47.03
2023-03-11T19:51:25.414Z,67.95
2023-03-11T19:56:30.518Z,60.72
2023-03-11T20:01:32.525Z,61.30
2023-03-11T20:06:34.607Z,50.55
2023-03-11T20:11:40.458Z,28.83
2023-03-11T20:16:42.720Z,23.90
2023-03-11T20:21:46.026Z,37.45
2023-03-11T20:26:50.761Z,29.73
2023-03-11T20:31:53.537Z,32.88
2023-03-11T20:36:55.943Z,36.63
2023-03-11T20:41:58.216Z,47.97
2023-03-11T20:47:00.453Z,47.35
2023-03-11T20:52:02.964Z,27.77
2023-03-11T20:57:05.139Z,25.98
2023-03-11T21:02:11.023Z,27.95
2023-03-11T21:07:13.503Z,28.67
2023-03-11T21:12:15.743Z,27.35
2023-03-11T21:17:17.928Z,26.33
2023-03-11T21:22:20.223Z,26.25
2023-03-11T21:27:26.478Z,44.47
2023-03-11T21:32:29.323Z,29.55
2023-03-11T21:37:31.653Z,31.42
2023-03-11T21:42:33.892Z,26.63
2023-03-11T21:47:37.765Z,25.70
2023-03-11T21:52:40.050Z,18.38
2023-03-11T21:57:42.162Z,17.40
2023-03-11T22:02:44.610Z,15.38
2023-03-11T22:07:46.715Z,19.00
2023-03-11T22:12:49.140Z,17.00
2023-03-11T22:17:51.465Z,13.82
2023-03-11T22:22:54.344Z,15.73
2023-03-11T22:27:56.738Z,16.27
2023-03-11T22:32:58.871Z,18.67
2023-03-11T22:38:01.082Z,14.90
2023-03-11T22:43:03.348Z,13.55
2023-03-11T22:48:05.892Z,15.45
2023-03-11T22:53:08.591Z,14.95
2023-03-11T22:58:12.114Z,14.65
2023-03-11T23:03:14.508Z,15.80
2023-03-11T23:08:16.734Z,19.27
2023-03-11T23:13:19.347Z,15.73
2023-03-11T23:18:21.467Z,15.63
2023-03-11T23:23:23.504Z,18.63
2023-03-11T23:28:25.602Z,11.73
2023-03-11T23:33:27.968Z,17.88
2023-03-11T23:38:30.555Z,15.98
2023-03-11T23:43:32.620Z,16.40
2023-03-11T23:48:34.635Z,14.65
2023-03-11T23:53:37.445Z,11.35
2023-03-11T23:58:39.999Z,13.30
